sensor_id;sensor_type;location;lat;lon;timestamp;temperature;humidity
10433;DHT22;5263;48.680;9.004;2023-07-16T00:02:23;19.00;99.90
10433;DHT22;5263;48.680;9.004;2023-07-16T00:04:49;19.00;99.90
10433;DHT22;5263;48.680;9.004;2023-07-16T00:07:14;18.90;99.90
10433;DHT22;5263;48.680;9.004;2023-07-16T00:09:40;18.90;99.90
10433;DHT22;5263;48.680;9.004;2023-07-16T00:12:06;18.70;99.90
10433;DHT22;5263;48.680;9.004;2023-07-16T00:14:31;18.60;99.90
10433;DHT22;5263;48.680;9.004;2023-07-16T00:16:57;18.50;99.90
10433;DHT22;5263;48.680;9.004;2023-07-16T00:19:23;18.50;99.90
10433;DHT22;5263;48.680;9.004;2023-07-16T00:21:48;18.40;99.90
10433;DHT22;5263;48.680;9.004;2023-07-16T00:24:14;18.50;99.90
10433;DHT22;5263;48.680;9.004;2023-07-16T00:26:40;18.30;99.90
10433;DHT22;5263;48.680;9.004;2023-07-16T00:29:05;18.40;99.90
10433;DHT22;5263;48.680;9.004;2023-07-16T00:31:31;18.40;99.90
10433;DHT22;5263;48.680;9.004;2023-07-16T00:33:56;18.30;99.90
10433;DHT22;5263;48.680;9.004;2023-07-16T00:36:22;18.20;99.90
10433;DHT22;5263;48.680;9.004;2023-07-16T00:38:47;18.10;99.90
10433;DHT22;5263;48.680;9.004;2023-07-16T00:41:13;18.20;99.90
10433;DHT22;5263;48.680;9.004;2023-07-16T00:43:39;18.20;99.90
10433;DHT22;5263;48.680;9.004;2023-07-16T00:46:05;18.30;99.90
10433;DHT22;5263;48.680;9.004;2023-07-16T00:48:31;18.20;99.90
10433;DHT22;5263;48.680;9.004;2023-07-16T00:50:57;18.30;99.90
10433;DHT22;5263;48.680;9.004;2023-07-16T00:53:23;18.20;99.90
10433;DHT22;5263;48.680;9.004;2023-07-16T00:55:48;18.00;99.90
10433;DHT22;5263;48.680;9.004;2023-07-16T00:58:14;17.80;99.90
10433;DHT22;5263;48.680;9.004;2023-07-16T01:00:42;17.60;99.90
10433;DHT22;5263;48.680;9.004;2023-07-16T01:03:09;17.60;99.90
10433;DHT22;5263;48.680;9.004;2023-07-16T01:05:45;17.60;99.90
10433;DHT22;5263;48.680;9.004;2023-07-16T01:08:11;17.50;99.90
10433;DHT22;5263;48.680;9.004;2023-07-16T01:10:39;17.70;99.90
10433;DHT22;5263;48.680;9.004;2023-07-16T01:13:06;17.50;99.90
10433;DHT22;5263;48.680;9.004;2023-07-16T01:15:31;17.20;99.90
10433;DHT22;5263;48.680;9.004;2023-07-16T01:17:57;17.10;99.90
10433;DHT22;5263;48.680;9.004;2023-07-16T01:20:23;17.00;99.90
10433;DHT22;5263;48.680;9.004;2023-07-16T01:28:27;16.70;99.90
10433;DHT22;5263;48.680;9.004;2023-07-16T01:30:58;16.70;99.90
10433;DHT22;5263;48.680;9.004;2023-07-16T01:33:25;16.60;99.90
10433;DHT22;5263;48.680;9.004;2023-07-16T01:35:52;16.60;99.90
10433;DHT22;5263;48.680;9.004;2023-07-16T01:38:18;16.80;99.90
10433;DHT22;5263;48.680;9.004;2023-07-16T01:40:46;16.80;99.90
10433;DHT22;5263;48.680;9.004;2023-07-16T01:43:12;16.80;99.90
10433;DHT22;5263;48.680;9.004;2023-07-16T01:45:38;17.00;99.90
10433;DHT22;5263;48.680;9.004;2023-07-16T01:48:33;17.00;99.90
10433;DHT22;5263;48.680;9.004;2023-07-16T01:51:00;17.00;99.90
10433;DHT22;5263;48.680;9.004;2023-07-16T01:53:25;17.10;99.90
10433;DHT22;5263;48.680;9.004;2023-07-16T01:55:51;17.10;99.90
10433;DHT22;5263;48.680;9.004;2023-07-16T01:58:17;17.00;99.90
10433;DHT22;5263;48.680;9.004;2023-07-16T02:00:42;17.00;99.90
10433;DHT22;5263;48.680;9.004;2023-07-16T02:03:08;16.90;99.90
10433;DHT22;5263;48.680;9.004;2023-07-16T02:05:34;16.90;99.90
10433;DHT22;5263;48.680;9.004;2023-07-16T02:07:59;17.00;99.90
10433;DHT22;5263;48.680;9.004;2023-07-16T02:10:25;17.00;99.90
10433;DHT22;5263;48.680;9.004;2023-07-16T02:12:51;17.00;99.90
10433;DHT22;5263;48.680;9.004;2023-07-16T02:15:16;17.00;99.90
10433;DHT22;5263;48.680;9.004;2023-07-16T02:17:43;17.10;99.90
10433;DHT22;5263;48.680;9.004;2023-07-16T02:20:09;17.10;99.90
10433;DHT22;5263;48.680;9.004;2023-07-16T02:22:38;17.20;99.90
10433;DHT22;5263;48.680;9.004;2023-07-16T02:25:04;17.00;99.90
10433;DHT22;5263;48.680;9.004;2023-07-16T02:27:30;17.00;99.90
10433;DHT22;5263;48.680;9.004;2023-07-16T02:29:55;17.00;99.90
10433;DHT22;5263;48.680;9.004;2023-07-16T02:32:21;17.20;99.90
10433;DHT22;5263;48.680;9.004;2023-07-16T02:34:47;17.10;99.90
10433;DHT22;5263;48.680;9.004;2023-07-16T02:37:12;17.20;99.90
10433;DHT22;5263;48.680;9.004;2023-07-16T02:39:39;17.30;99.90
10433;DHT22;5263;48.680;9.004;2023-07-16T02:42:05;17.30;99.90
10433;DHT22;5263;48.680;9.004;2023-07-16T02:44:30;17.10;99.90
10433;DHT22;5263;48.680;9.004;2023-07-16T02:46:56;17.10;99.90
10433;DHT22;5263;48.680;9.004;2023-07-16T02:49:21;17.00;99.90
10433;DHT22;5263;48.680;9.004;2023-07-16T02:51:47;16.90;99.90
10433;DHT22;5263;48.680;9.004;2023-07-16T02:54:13;16.70;99.90
10433;DHT22;5263;48.680;9.004;2023-07-16T02:56:38;16.50;99.90
10433;DHT22;5263;48.680;9.004;2023-07-16T02:59:04;16.30;99.90
10433;DHT22;5263;48.680;9.004;2023-07-16T03:01:30;16.20;99.90
10433;DHT22;5263;48.680;9.004;2023-07-16T03:03:56;16.20;99.90
10433;DHT22;5263;48.680;9.004;2023-07-16T03:06:21;16.20;99.90
10433;DHT22;5263;48.680;9.004;2023-07-16T03:08:47;16.30;99.90
10433;DHT22;5263;48.680;9.004;2023-07-16T03:11:13;16.50;99.90
10433;DHT22;5263;48.680;9.004;2023-07-16T03:13:39;16.70;99.90
10433;DHT22;5263;48.680;9.004;2023-07-16T03:16:04;16.40;99.90
10433;DHT22;5263;48.680;9.004;2023-07-16T03:18:30;16.30;99.90
10433;DHT22;5263;48.680;9.004;2023-07-16T03:20:57;16.20;99.90
10433;DHT22;5263;48.680;9.004;2023-07-16T03:23:23;16.10;99.90
10433;DHT22;5263;48.680;9.004;2023-07-16T03:25:48;16.10;99.90
10433;DHT22;5263;48.680;9.004;2023-07-16T03:28:14;16.00;99.90
10433;DHT22;5263;48.680;9.004;2023-07-16T03:30:40;15.90;99.90
10433;DHT22;5263;48.680;9.004;2023-07-16T03:33:05;16.00;99.90
10433;DHT22;5263;48.680;9.004;2023-07-16T03:35:31;16.10;99.90
10433;DHT22;5263;48.680;9.004;2023-07-16T03:37:57;16.00;99.90
10433;DHT22;5263;48.680;9.004;2023-07-16T03:40:26;16.20;99.90
10433;DHT22;5263;48.680;9.004;2023-07-16T03:42:52;16.10;99.90
10433;DHT22;5263;48.680;9.004;2023-07-16T03:45:18;16.10;99.90
10433;DHT22;5263;48.680;9.004;2023-07-16T03:47:44;16.10;99.90
10433;DHT22;5263;48.680;9.004;2023-07-16T03:50:10;16.00;99.90
10433;DHT22;5263;48.680;9.004;2023-07-16T03:52:35;16.10;99.90
10433;DHT22;5263;48.680;9.004;2023-07-16T03:55:01;16.00;99.90
10433;DHT22;5263;48.680;9.004;2023-07-16T03:57:30;16.00;99.90
10433;DHT22;5263;48.680;9.004;2023-07-16T03:59:56;16.10;99.90
10433;DHT22;5263;48.680;9.004;2023-07-16T04:02:22;16.00;99.90
10433;DHT22;5263;48.680;9.004;2023-07-16T04:04:47;16.10;99.90
10433;DHT22;5263;48.680;9.004;2023-07-16T04:07:13;16.10;99.90
10433;DHT22;5263;48.680;9.004;2023-07-16T04:09:39;16.10;99.90
10433;DHT22;5263;48.680;9.004;2023-07-16T04:12:06;16.20;99.90
10433;DHT22;5263;48.680;9.004;2023-07-16T04:14:32;16.10;99.90
10433;DHT22;5263;48.680;9.004;2023-07-16T04:16:57;16.10;99.90
10433;DHT22;5263;48.680;9.004;2023-07-16T04:19:23;16.20;99.90
10433;DHT22;5263;48.680;9.004;2023-07-16T04:21:48;16.10;99.90
10433;DHT22;5263;48.680;9.004;2023-07-16T04:24:14;16.10;99.90
10433;DHT22;5263;48.680;9.004;2023-07-16T04:26:40;16.10;99.90
10433;DHT22;5263;48.680;9.004;2023-07-16T04:29:05;16.00;99.90
10433;DHT22;5263;48.680;9.004;2023-07-16T04:31:31;16.00;99.90
10433;DHT22;5263;48.680;9.004;2023-07-16T04:33:56;16.00;99.90
10433;DHT22;5263;48.680;9.004;2023-07-16T04:36:22;16.00;99.90
10433;DHT22;5263;48.680;9.004;2023-07-16T04:38:48;16.00;99.90
10433;DHT22;5263;48.680;9.004;2023-07-16T04:41:13;16.00;99.90
10433;DHT22;5263;48.680;9.004;2023-07-16T04:43:39;16.00;99.90
10433;DHT22;5263;48.680;9.004;2023-07-16T04:46:05;15.90;99.90
10433;DHT22;5263;48.680;9.004;2023-07-16T04:48:30;15.90;99.90
10433;DHT22;5263;48.680;9.004;2023-07-16T04:50:56;16.00;99.90
10433;DHT22;5263;48.680;9.004;2023-07-16T04:53:22;16.10;99.90
10433;DHT22;5263;48.680;9.004;2023-07-16T04:55:48;16.20;99.90
10433;DHT22;5263;48.680;9.004;2023-07-16T04:58:15;16.20;99.90
10433;DHT22;5263;48.680;9.004;2023-07-16T05:00:41;16.10;99.90
10433;DHT22;5263;48.680;9.004;2023-07-16T05:03:06;16.10;99.90
10433;DHT22;5263;48.680;9.004;2023-07-16T05:05:32;16.10;99.90
10433;DHT22;5263;48.680;9.004;2023-07-16T05:07:58;16.20;99.90
10433;DHT22;5263;48.680;9.004;2023-07-16T05:10:24;16.30;99.90
10433;DHT22;5263;48.680;9.004;2023-07-16T05:12:49;16.30;99.90
10433;DHT22;5263;48.680;9.004;2023-07-16T05:15:15;16.20;99.90
10433;DHT22;5263;48.680;9.004;2023-07-16T05:17:41;16.30;99.90
10433;DHT22;5263;48.680;9.004;2023-07-16T05:20:07;16.40;99.90
10433;DHT22;5263;48.680;9.004;2023-07-16T05:22:34;16.40;99.90
10433;DHT22;5263;48.680;9.004;2023-07-16T05:25:00;16.40;99.90
10433;DHT22;5263;48.680;9.004;2023-07-16T05:27:26;16.30;99.90
10433;DHT22;5263;48.680;9.004;2023-07-16T05:29:51;16.40;99.90
10433;DHT22;5263;48.680;9.004;2023-07-16T05:32:17;16.50;99.90
10433;DHT22;5263;48.680;9.004;2023-07-16T05:34:43;16.60;99.90
10433;DHT22;5263;48.680;9.004;2023-07-16T05:37:08;16.60;99.90
10433;DHT22;5263;48.680;9.004;2023-07-16T05:39:34;16.50;99.90
10433;DHT22;5263;48.680;9.004;2023-07-16T05:41:59;16.70;99.90
10433;DHT22;5263;48.680;9.004;2023-07-16T05:44:28;16.70;99.90
10433;DHT22;5263;48.680;9.004;2023-07-16T05:46:53;16.60;99.90
10433;DHT22;5263;48.680;9.004;2023-07-16T05:49:19;16.60;99.90
10433;DHT22;5263;48.680;9.004;2023-07-16T05:51:45;16.50;99.90
10433;DHT22;5263;48.680;9.004;2023-07-16T05:54:10;16.60;99.90
10433;DHT22;5263;48.680;9.004;2023-07-16T05:56:36;16.60;99.90
10433;DHT22;5263;48.680;9.004;2023-07-16T05:59:01;16.70;99.90
10433;DHT22;5263;48.680;9.004;2023-07-16T06:01:27;16.70;99.90
10433;DHT22;5263;48.680;9.004;2023-07-16T06:03:53;16.80;99.90
10433;DHT22;5263;48.680;9.004;2023-07-16T06:06:19;16.70;99.90
10433;DHT22;5263;48.680;9.004;2023-07-16T06:08:45;16.60;99.90
10433;DHT22;5263;48.680;9.004;2023-07-16T06:11:11;16.70;99.90
10433;DHT22;5263;48.680;9.004;2023-07-16T06:13:37;16.60;99.90
10433;DHT22;5263;48.680;9.004;2023-07-16T06:16:02;16.40;99.90
10433;DHT22;5263;48.680;9.004;2023-07-16T06:18:28;16.60;99.90
10433;DHT22;5263;48.680;9.004;2023-07-16T06:20:54;16.70;99.90
10433;DHT22;5263;48.680;9.004;2023-07-16T06:23:20;16.60;99.90
10433;DHT22;5263;48.680;9.004;2023-07-16T06:25:46;16.70;99.90
10433;DHT22;5263;48.680;9.004;2023-07-16T06:28:15;16.90;99.90
10433;DHT22;5263;48.680;9.004;2023-07-16T06:30:41;17.00;99.90
10433;DHT22;5263;48.680;9.004;2023-07-16T06:33:06;17.20;99.90
10433;DHT22;5263;48.680;9.004;2023-07-16T06:35:32;17.30;99.90
10433;DHT22;5263;48.680;9.004;2023-07-16T06:37:58;17.50;99.90
10433;DHT22;5263;48.680;9.004;2023-07-16T06:40:24;17.30;99.90
10433;DHT22;5263;48.680;9.004;2023-07-16T06:42:50;17.50;99.90
10433;DHT22;5263;48.680;9.004;2023-07-16T06:45:17;17.50;99.90
10433;DHT22;5263;48.680;9.004;2023-07-16T06:47:43;17.70;99.90
10433;DHT22;5263;48.680;9.004;2023-07-16T06:50:09;17.90;99.90
10433;DHT22;5263;48.680;9.004;2023-07-16T06:52:35;17.70;99.90
10433;DHT22;5263;48.680;9.004;2023-07-16T06:55:00;18.00;99.90
10433;DHT22;5263;48.680;9.004;2023-07-16T06:57:26;18.00;99.90
10433;DHT22;5263;48.680;9.004;2023-07-16T06:59:51;17.90;99.90
10433;DHT22;5263;48.680;9.004;2023-07-16T07:02:18;17.80;99.90
10433;DHT22;5263;48.680;9.004;2023-07-16T07:04:44;16.60;99.90
10433;DHT22;5263;48.680;9.004;2023-07-16T07:07:09;18.10;99.90
10433;DHT22;5263;48.680;9.004;2023-07-16T07:09:35;17.80;99.90
10433;DHT22;5263;48.680;9.004;2023-07-16T07:12:01;18.00;99.90
10433;DHT22;5263;48.680;9.004;2023-07-16T07:14:26;18.20;99.90
10433;DHT22;5263;48.680;9.004;2023-07-16T07:16:52;18.20;99.90
10433;DHT22;5263;48.680;9.004;2023-07-16T07:19:18;18.40;99.90
10433;DHT22;5263;48.680;9.004;2023-07-16T07:21:43;18.30;99.90
10433;DHT22;5263;48.680;9.004;2023-07-16T07:24:09;18.40;99.90
10433;DHT22;5263;48.680;9.004;2023-07-16T07:26:35;18.30;99.90
10433;DHT22;5263;48.680;9.004;2023-07-16T07:29:00;18.30;99.90
10433;DHT22;5263;48.680;9.004;2023-07-16T07:31:26;18.20;99.90
10433;DHT22;5263;48.680;9.004;2023-07-16T07:33:51;18.40;99.90
10433;DHT22;5263;48.680;9.004;2023-07-16T07:36:19;18.50;99.90
10433;DHT22;5263;48.680;9.004;2023-07-16T07:38:44;18.60;99.90
10433;DHT22;5263;48.680;9.004;2023-07-16T07:41:10;18.70;99.90
10433;DHT22;5263;48.680;9.004;2023-07-16T07:43:35;18.90;99.90
10433;DHT22;5263;48.680;9.004;2023-07-16T07:46:01;19.00;99.90
10433;DHT22;5263;48.680;9.004;2023-07-16T07:48:27;18.90;99.90
10433;DHT22;5263;48.680;9.004;2023-07-16T07:50:52;19.00;99.90
10433;DHT22;5263;48.680;9.004;2023-07-16T07:53:18;19.10;99.90
10433;DHT22;5263;48.680;9.004;2023-07-16T07:55:44;19.20;99.90
10433;DHT22;5263;48.680;9.004;2023-07-16T07:58:11;19.20;99.90
10433;DHT22;5263;48.680;9.004;2023-07-16T08:00:37;19.10;99.90
10433;DHT22;5263;48.680;9.004;2023-07-16T08:03:03;19.40;99.90
10433;DHT22;5263;48.680;9.004;2023-07-16T08:05:28;19.60;99.90
10433;DHT22;5263;48.680;9.004;2023-07-16T08:07:54;19.90;99.90
10433;DHT22;5263;48.680;9.004;2023-07-16T08:10:21;19.90;99.90
10433;DHT22;5263;48.680;9.004;2023-07-16T08:12:47;20.10;99.90
10433;DHT22;5263;48.680;9.004;2023-07-16T08:15:13;20.40;99.90
10433;DHT22;5263;48.680;9.004;2023-07-16T08:17:42;20.70;99.90
10433;DHT22;5263;48.680;9.004;2023-07-16T08:20:09;20.70;99.90
10433;DHT22;5263;48.680;9.004;2023-07-16T08:22:34;20.80;99.90
10433;DHT22;5263;48.680;9.004;2023-07-16T08:25:00;21.30;99.90
10433;DHT22;5263;48.680;9.004;2023-07-16T08:27:26;21.40;99.90
10433;DHT22;5263;48.680;9.004;2023-07-16T08:29:51;21.10;99.90
10433;DHT22;5263;48.680;9.004;2023-07-16T08:32:19;20.90;99.90
10433;DHT22;5263;48.680;9.004;2023-07-16T08:34:44;20.90;99.90
10433;DHT22;5263;48.680;9.004;2023-07-16T08:37:10;21.00;99.90
10433;DHT22;5263;48.680;9.004;2023-07-16T08:39:35;21.10;99.90
10433;DHT22;5263;48.680;9.004;2023-07-16T08:42:01;21.40;99.90
10433;DHT22;5263;48.680;9.004;2023-07-16T08:44:28;21.30;99.90
10433;DHT22;5263;48.680;9.004;2023-07-16T08:46:54;21.20;99.90
10433;DHT22;5263;48.680;9.004;2023-07-16T08:49:22;21.00;99.90
10433;DHT22;5263;48.680;9.004;2023-07-16T08:51:48;20.60;99.90
10433;DHT22;5263;48.680;9.004;2023-07-16T08:54:14;20.50;99.90
10433;DHT22;5263;48.680;9.004;2023-07-16T08:56:43;20.60;99.90
10433;DHT22;5263;48.680;9.004;2023-07-16T08:59:10;20.90;99.90
10433;DHT22;5263;48.680;9.004;2023-07-16T09:01:37;20.70;99.90
10433;DHT22;5263;48.680;9.004;2023-07-16T09:04:02;20.60;99.90
10433;DHT22;5263;48.680;9.004;2023-07-16T09:06:28;20.60;99.90
10433;DHT22;5263;48.680;9.004;2023-07-16T09:08:54;20.70;99.90
10433;DHT22;5263;48.680;9.004;2023-07-16T09:11:20;20.90;99.90
10433;DHT22;5263;48.680;9.004;2023-07-16T09:13:48;20.90;99.90
10433;DHT22;5263;48.680;9.004;2023-07-16T09:16:14;21.10;99.90
10433;DHT22;5263;48.680;9.004;2023-07-16T09:18:42;21.10;99.90
10433;DHT22;5263;48.680;9.004;2023-07-16T09:21:07;21.30;99.90
10433;DHT22;5263;48.680;9.004;2023-07-16T09:23:34;21.40;99.90
10433;DHT22;5263;48.680;9.004;2023-07-16T09:25:59;21.60;99.90
10433;DHT22;5263;48.680;9.004;2023-07-16T09:28:25;22.00;99.90
10433;DHT22;5263;48.680;9.004;2023-07-16T09:30:51;22.30;99.90
10433;DHT22;5263;48.680;9.004;2023-07-16T09:33:19;22.30;99.90
10433;DHT22;5263;48.680;9.004;2023-07-16T09:35:48;22.10;99.90
10433;DHT22;5263;48.680;9.004;2023-07-16T09:38:15;22.30;99.90
10433;DHT22;5263;48.680;9.004;2023-07-16T09:40:41;22.70;99.90
10433;DHT22;5263;48.680;9.004;2023-07-16T09:43:08;22.50;99.90
10433;DHT22;5263;48.680;9.004;2023-07-16T09:45:34;22.50;99.90
10433;DHT22;5263;48.680;9.004;2023-07-16T09:48:01;22.70;99.90
10433;DHT22;5263;48.680;9.004;2023-07-16T09:50:29;21.90;99.90
10433;DHT22;5263;48.680;9.004;2023-07-16T09:52:56;22.20;99.90
10433;DHT22;5263;48.680;9.004;2023-07-16T09:55:23;22.10;99.90
10433;DHT22;5263;48.680;9.004;2023-07-16T09:57:50;22.40;99.90
10433;DHT22;5263;48.680;9.004;2023-07-16T10:00:17;22.60;99.90
10433;DHT22;5263;48.680;9.004;2023-07-16T10:02:44;22.70;99.90
10433;DHT22;5263;48.680;9.004;2023-07-16T10:05:27;22.70;99.90
10433;DHT22;5263;48.680;9.004;2023-07-16T10:07:59;22.70;99.90
10433;DHT22;5263;48.680;9.004;2023-07-16T10:10:37;22.70;99.90
10433;DHT22;5263;48.680;9.004;2023-07-16T10:13:04;22.60;99.90
10433;DHT22;5263;48.680;9.004;2023-07-16T10:15:30;22.50;99.90
10433;DHT22;5263;48.680;9.004;2023-07-16T10:17:56;22.70;99.90
10433;DHT22;5263;48.680;9.004;2023-07-16T10:20:36;23.00;99.90
10433;DHT22;5263;48.680;9.004;2023-07-16T10:23:15;22.80;99.90
10433;DHT22;5263;48.680;9.004;2023-07-16T10:25:57;22.90;99.90
10433;DHT22;5263;48.680;9.004;2023-07-16T10:28:22;23.30;99.90
10433;DHT22;5263;48.680;9.004;2023-07-16T10:30:50;23.60;99.90
10433;DHT22;5263;48.680;9.004;2023-07-16T10:33:15;23.80;99.90
10433;DHT22;5263;48.680;9.004;2023-07-16T10:35:42;23.40;99.90
10433;DHT22;5263;48.680;9.004;2023-07-16T10:38:07;25.00;99.90
10433;DHT22;5263;48.680;9.004;2023-07-16T10:40:42;26.70;99.90
10433;DHT22;5263;48.680;9.004;2023-07-16T10:43:08;29.30;96.20
10433;DHT22;5263;48.680;9.004;2023-07-16T10:45:34;29.80;90.80
10433;DHT22;5263;48.680;9.004;2023-07-16T10:48:00;30.60;82.60
10433;DHT22;5263;48.680;9.004;2023-07-16T10:50:25;29.60;81.90
10433;DHT22;5263;48.680;9.004;2023-07-16T10:52:55;29.50;86.10
10433;DHT22;5263;48.680;9.004;2023-07-16T10:55:22;30.70;79.70
10433;DHT22;5263;48.680;9.004;2023-07-16T10:57:48;32.90;75.40
10433;DHT22;5263;48.680;9.004;2023-07-16T11:00:19;33.00;66.90
10433;DHT22;5263;48.680;9.004;2023-07-16T11:02:44;33.10;66.80
10433;DHT22;5263;48.680;9.004;2023-07-16T11:05:11;33.50;66.80
10433;DHT22;5263;48.680;9.004;2023-07-16T11:07:37;31.70;68.70
10433;DHT22;5263;48.680;9.004;2023-07-16T11:10:02;31.30;72.90
10433;DHT22;5263;48.680;9.004;2023-07-16T11:12:28;32.10;71.60
10433;DHT22;5263;48.680;9.004;2023-07-16T11:14:54;31.80;67.10
10433;DHT22;5263;48.680;9.004;2023-07-16T11:17:22;32.10;65.50
10433;DHT22;5263;48.680;9.004;2023-07-16T11:19:49;31.90;67.20
10433;DHT22;5263;48.680;9.004;2023-07-16T11:22:15;32.90;65.30
10433;DHT22;5263;48.680;9.004;2023-07-16T11:24:45;31.50;65.90
10433;DHT22;5263;48.680;9.004;2023-07-16T11:29:57;28.80;72.60
10433;DHT22;5263;48.680;9.004;2023-07-16T11:32:31;27.50;78.20
10433;DHT22;5263;48.680;9.004;2023-07-16T11:34:58;27.80;78.50
10433;DHT22;5263;48.680;9.004;2023-07-16T11:37:28;27.40;79.50
10433;DHT22;5263;48.680;9.004;2023-07-16T11:42:34;26.20;90.00
10433;DHT22;5263;48.680;9.004;2023-07-16T11:45:00;25.50;87.40
10433;DHT22;5263;48.680;9.004;2023-07-16T11:47:26;26.10;87.50
10433;DHT22;5263;48.680;9.004;2023-07-16T11:49:52;26.40;84.30
10433;DHT22;5263;48.680;9.004;2023-07-16T11:52:23;26.80;84.00
10433;DHT22;5263;48.680;9.004;2023-07-16T11:54:50;26.60;84.70
10433;DHT22;5263;48.680;9.004;2023-07-16T11:57:16;26.20;86.80
10433;DHT22;5263;48.680;9.004;2023-07-16T11:59:42;27.60;81.90
10433;DHT22;5263;48.680;9.004;2023-07-16T12:02:07;29.90;76.00
10433;DHT22;5263;48.680;9.004;2023-07-16T12:04:33;30.50;71.80
10433;DHT22;5263;48.680;9.004;2023-07-16T12:06:59;31.30;68.70
10433;DHT22;5263;48.680;9.004;2023-07-16T12:09:24;30.10;69.80
10433;DHT22;5263;48.680;9.004;2023-07-16T12:11:50;28.50;73.00
10433;DHT22;5263;48.680;9.004;2023-07-16T12:14:15;27.10;75.20
10433;DHT22;5263;48.680;9.004;2023-07-16T12:16:41;26.30;79.70
10433;DHT22;5263;48.680;9.004;2023-07-16T12:19:08;25.20;84.40
10433;DHT22;5263;48.680;9.004;2023-07-16T12:21:34;25.70;84.80
10433;DHT22;5263;48.680;9.004;2023-07-16T12:24:00;25.60;84.80
10433;DHT22;5263;48.680;9.004;2023-07-16T12:26:25;26.00;85.10
10433;DHT22;5263;48.680;9.004;2023-07-16T12:28:51;26.10;82.50
10433;DHT22;5263;48.680;9.004;2023-07-16T12:31:17;25.70;83.60
10433;DHT22;5263;48.680;9.004;2023-07-16T12:33:43;24.90;88.20
10433;DHT22;5263;48.680;9.004;2023-07-16T12:36:09;25.40;89.70
10433;DHT22;5263;48.680;9.004;2023-07-16T12:38:34;27.20;85.00
10433;DHT22;5263;48.680;9.004;2023-07-16T12:41:00;28.10;80.70
10433;DHT22;5263;48.680;9.004;2023-07-16T12:43:26;28.60;80.10
10433;DHT22;5263;48.680;9.004;2023-07-16T12:45:51;28.50;78.90
10433;DHT22;5263;48.680;9.004;2023-07-16T12:48:17;27.20;79.10
10433;DHT22;5263;48.680;9.004;2023-07-16T12:50:43;26.70;81.50
10433;DHT22;5263;48.680;9.004;2023-07-16T12:53:08;27.30;80.00
10433;DHT22;5263;48.680;9.004;2023-07-16T12:55:34;27.80;80.50
10433;DHT22;5263;48.680;9.004;2023-07-16T12:58:00;27.70;78.40
10433;DHT22;5263;48.680;9.004;2023-07-16T13:00:25;29.00;76.80
10433;DHT22;5263;48.680;9.004;2023-07-16T13:02:51;31.50;72.00
10433;DHT22;5263;48.680;9.004;2023-07-16T13:05:17;33.10;63.80
10433;DHT22;5263;48.680;9.004;2023-07-16T13:07:42;33.40;63.20
10433;DHT22;5263;48.680;9.004;2023-07-16T13:10:08;34.00;59.40
10433;DHT22;5263;48.680;9.004;2023-07-16T13:12:34;34.60;58.50
10433;DHT22;5263;48.680;9.004;2023-07-16T13:15:00;33.00;58.20
10433;DHT22;5263;48.680;9.004;2023-07-16T13:17:25;33.80;61.60
10433;DHT22;5263;48.680;9.004;2023-07-16T13:19:51;33.80;59.30
10433;DHT22;5263;48.680;9.004;2023-07-16T13:22:16;32.90;59.90
10433;DHT22;5263;48.680;9.004;2023-07-16T13:24:42;33.80;58.60
10433;DHT22;5263;48.680;9.004;2023-07-16T13:27:18;31.80;61.10
10433;DHT22;5263;48.680;9.004;2023-07-16T13:29:44;30.80;65.20
10433;DHT22;5263;48.680;9.004;2023-07-16T13:32:09;30.80;64.10
10433;DHT22;5263;48.680;9.004;2023-07-16T13:34:35;31.80;65.30
10433;DHT22;5263;48.680;9.004;2023-07-16T13:37:01;33.20;62.20
10433;DHT22;5263;48.680;9.004;2023-07-16T13:39:26;34.00;57.00
10433;DHT22;5263;48.680;9.004;2023-07-16T13:41:52;33.50;57.10
10433;DHT22;5263;48.680;9.004;2023-07-16T13:44:17;33.30;58.30
10433;DHT22;5263;48.680;9.004;2023-07-16T13:46:43;33.40;56.70
10433;DHT22;5263;48.680;9.004;2023-07-16T13:49:09;33.40;57.00
10433;DHT22;5263;48.680;9.004;2023-07-16T13:51:34;32.60;60.40
10433;DHT22;5263;48.680;9.004;2023-07-16T13:54:00;30.90;60.80
10433;DHT22;5263;48.680;9.004;2023-07-16T13:56:25;31.80;60.40
10433;DHT22;5263;48.680;9.004;2023-07-16T13:58:51;32.60;60.40
10433;DHT22;5263;48.680;9.004;2023-07-16T14:01:19;32.90;60.00
10433;DHT22;5263;48.680;9.004;2023-07-16T14:03:45;34.10;57.30
10433;DHT22;5263;48.680;9.004;2023-07-16T14:06:10;34.60;52.90
10433;DHT22;5263;48.680;9.004;2023-07-16T14:08:36;34.70;54.70
10433;DHT22;5263;48.680;9.004;2023-07-16T14:11:02;33.00;56.10
10433;DHT22;5263;48.680;9.004;2023-07-16T14:13:28;33.40;57.80
10433;DHT22;5263;48.680;9.004;2023-07-16T14:15:54;33.90;55.60
10433;DHT22;5263;48.680;9.004;2023-07-16T14:18:20;32.70;56.60
10433;DHT22;5263;48.680;9.004;2023-07-16T14:20:45;31.40;59.80
10433;DHT22;5263;48.680;9.004;2023-07-16T14:23:11;30.80;61.00
10433;DHT22;5263;48.680;9.004;2023-07-16T14:25:37;31.20;60.20
10433;DHT22;5263;48.680;9.004;2023-07-16T14:28:02;32.00;57.80
10433;DHT22;5263;48.680;9.004;2023-07-16T14:30:28;31.10;59.70
10433;DHT22;5263;48.680;9.004;2023-07-16T14:32:55;29.60;62.30
10433;DHT22;5263;48.680;9.004;2023-07-16T14:35:21;28.60;63.50
10433;DHT22;5263;48.680;9.004;2023-07-16T14:37:47;27.90;66.00
10433;DHT22;5263;48.680;9.004;2023-07-16T14:40:13;26.90;67.70
10433;DHT22;5263;48.680;9.004;2023-07-16T14:42:38;26.10;69.90
10433;DHT22;5263;48.680;9.004;2023-07-16T14:45:05;26.20;70.90
10433;DHT22;5263;48.680;9.004;2023-07-16T14:47:33;26.00;72.00
10433;DHT22;5263;48.680;9.004;2023-07-16T14:49:58;26.00;72.60
10433;DHT22;5263;48.680;9.004;2023-07-16T14:52:24;26.30;72.10
10433;DHT22;5263;48.680;9.004;2023-07-16T14:54:50;27.10;69.30
10433;DHT22;5263;48.680;9.004;2023-07-16T14:57:15;27.60;67.90
10433;DHT22;5263;48.680;9.004;2023-07-16T14:59:41;27.00;69.50
10433;DHT22;5263;48.680;9.004;2023-07-16T15:02:07;26.90;69.70
10433;DHT22;5263;48.680;9.004;2023-07-16T15:04:32;26.70;72.20
10433;DHT22;5263;48.680;9.004;2023-07-16T15:06:58;27.90;68.80
10433;DHT22;5263;48.680;9.004;2023-07-16T15:09:23;27.90;67.00
10433;DHT22;5263;48.680;9.004;2023-07-16T15:11:49;28.40;67.30
10433;DHT22;5263;48.680;9.004;2023-07-16T15:14:15;28.30;66.90
10433;DHT22;5263;48.680;9.004;2023-07-16T15:16:40;27.90;67.70
10433;DHT22;5263;48.680;9.004;2023-07-16T15:19:06;27.50;67.00
10433;DHT22;5263;48.680;9.004;2023-07-16T15:21:33;27.00;69.20
10433;DHT22;5263;48.680;9.004;2023-07-16T15:23:59;27.00;69.60
10433;DHT22;5263;48.680;9.004;2023-07-16T15:26:24;27.30;69.40
10433;DHT22;5263;48.680;9.004;2023-07-16T15:28:50;27.50;68.90
10433;DHT22;5263;48.680;9.004;2023-07-16T15:31:16;27.50;68.20
10433;DHT22;5263;48.680;9.004;2023-07-16T15:33:42;27.40;69.50
10433;DHT22;5263;48.680;9.004;2023-07-16T15:36:07;27.20;69.90
10433;DHT22;5263;48.680;9.004;2023-07-16T15:38:33;27.10;70.50
10433;DHT22;5263;48.680;9.004;2023-07-16T15:40:59;26.90;70.80
10433;DHT22;5263;48.680;9.004;2023-07-16T15:43:24;26.80;72.40
10433;DHT22;5263;48.680;9.004;2023-07-16T15:45:50;26.80;71.50
10433;DHT22;5263;48.680;9.004;2023-07-16T15:48:15;26.60;71.10
10433;DHT22;5263;48.680;9.004;2023-07-16T15:50:42;26.70;73.00